createdAt,value
2022-07-30T00:02:06.169Z,13.30
2022-07-30T00:04:38.804Z,15.30
2022-07-30T00:07:08.740Z,17.35
2022-07-30T00:09:37.013Z,17.30
2022-07-30T00:12:05.378Z,9.20
2022-07-30T00:14:35.304Z,17.30
2022-07-30T00:17:04.075Z,19.05
2022-07-30T00:19:33.006Z,15.65
2022-07-30T00:22:02.414Z,15.45
2022-07-30T00:24:30.556Z,15.02
2022-07-30T00:26:58.956Z,10.80
2022-07-30T00:29:27.987Z,10.53
2022-07-30T00:31:56.370Z,14.38
2022-07-30T00:34:24.767Z,9.65
2022-07-30T00:36:52.775Z,17.40
2022-07-30T00:39:24.587Z,11.43
2022-07-30T00:41:59.005Z,17.42
2022-07-30T00:44:27.343Z,13.27
2022-07-30T00:46:56.107Z,12.80
2022-07-30T00:49:26.760Z,12.63
2022-07-30T00:51:55.017Z,13.60
2022-07-30T00:54:24.671Z,14.57
2022-07-30T00:56:53.548Z,17.47
2022-07-30T00:59:22.923Z,15.05
2022-07-30T01:01:51.423Z,12.10
2022-07-30T01:04:19.388Z,13.77
2022-07-30T01:06:47.760Z,15.73
2022-07-30T01:10:20.049Z,13.13
2022-07-30T01:12:49.141Z,15.20
2022-07-30T01:15:17.849Z,17.08
2022-07-30T01:17:46.127Z,14.63
2022-07-30T01:20:26.028Z,13.40
2022-07-30T01:23:00.398Z,16.13
2022-07-30T01:26:01.698Z,19.77
2022-07-30T01:28:33.400Z,20.35
2022-07-30T01:31:02.796Z,20.88
2022-07-30T01:33:31.374Z,23.73
2022-07-30T01:36:05.489Z,23.25
2022-07-30T01:38:34.757Z,22.47
2022-07-30T01:41:07.873Z,25.20
2022-07-30T01:43:36.498Z,18.97
2022-07-30T01:46:04.748Z,18.85
2022-07-30T01:48:33.384Z,18.90
2022-07-30T01:51:05.133Z,19.42
2022-07-30T01:53:34.269Z,15.98
2022-07-30T01:56:03.773Z,16.52
2022-07-30T01:58:39.559Z,12.65
2022-07-30T02:01:08.690Z,14.03
2022-07-30T02:03:37.390Z,14.25
2022-07-30T02:06:11.083Z,17.00
2022-07-30T02:08:41.949Z,20.10
2022-07-30T02:11:12.453Z,17.83
2022-07-30T02:13:47.416Z,22.10
2022-07-30T02:16:18.306Z,16.58
2022-07-30T02:18:52.379Z,19.15
2022-07-30T02:21:22.025Z,17.23
2022-07-30T02:23:50.670Z,23.63
2022-07-30T02:26:20.333Z,27.20
2022-07-30T02:28:55.621Z,20.35
2022-07-30T02:31:26.400Z,20.60
2022-07-30T02:33:58.712Z,20.40
2022-07-30T02:36:27.392Z,18.38
2022-07-30T02:38:56.318Z,18.73
2022-07-30T02:41:26.190Z,18.03
2022-07-30T02:43:56.580Z,19.55
2022-07-30T02:46:25.840Z,18.98
2022-07-30T02:48:55.711Z,16.67
2022-07-30T02:51:24.329Z,18.15
2022-07-30T02:53:53.169Z,16.40
2022-07-30T02:56:23.005Z,19.40
2022-07-30T02:58:51.683Z,14.57
2022-07-30T03:01:23.353Z,16.13
2022-07-30T03:03:53.145Z,21.15
2022-07-30T03:06:22.308Z,23.15
2022-07-30T03:08:50.870Z,27.25
2022-07-30T03:12:20.028Z,25.95
2022-07-30T03:14:47.628Z,21.25
2022-07-30T03:17:18.119Z,24.67
2022-07-30T03:19:46.769Z,21.30
2022-07-30T03:23:15.929Z,22.70
2022-07-30T03:25:47.401Z,18.02
2022-07-30T03:28:17.281Z,18.00
2022-07-30T03:30:45.217Z,18.58
2022-07-30T03:33:15.934Z,22.93
2022-07-30T03:35:44.296Z,24.25
2022-07-30T03:38:13.655Z,29.75
2022-07-30T03:40:42.750Z,23.13
2022-07-30T03:43:32.551Z,22.55
2022-07-30T03:46:04.264Z,21.03
2022-07-30T03:48:35.367Z,23.52
2022-07-30T03:51:04.863Z,23.08
2022-07-30T03:53:34.435Z,23.08
2022-07-30T03:56:02.430Z,26.10
2022-07-30T03:58:32.317Z,31.13
2022-07-30T04:01:04.212Z,28.13
2022-07-30T04:03:34.907Z,33.85
2022-07-30T04:06:02.863Z,32.55
2022-07-30T04:08:30.793Z,29.15
2022-07-30T04:10:58.817Z,25.60
2022-07-30T04:13:26.688Z,24.00
2022-07-30T04:16:38.793Z,23.70
2022-07-30T04:18:52.881Z,26.52
2022-07-30T04:21:22.145Z,23.17
2022-07-30T04:24:04.793Z,25.27
2022-07-30T04:26:35.949Z,21.75
2022-07-30T04:29:06.425Z,24.85
2022-07-30T04:31:40.450Z,23.73
2022-07-30T04:34:09.971Z,22.65
2022-07-30T04:36:38.573Z,16.67
2022-07-30T04:42:47.052Z,20.35
2022-07-30T04:45:15.463Z,21.73
2022-07-30T04:47:43.211Z,21.23
2022-07-30T04:50:14.132Z,23.02
2022-07-30T04:52:43.102Z,25.08
2022-07-30T04:55:12.521Z,19.13
2022-07-30T04:57:43.743Z,23.88
2022-07-30T05:00:12.822Z,22.00
2022-07-30T05:02:41.951Z,25.08
2022-07-30T05:05:13.665Z,27.60
2022-07-30T05:07:43.614Z,21.67
2022-07-30T05:10:12.498Z,23.20
2022-07-30T05:12:40.457Z,24.73
2022-07-30T05:15:10.745Z,17.90
2022-07-30T05:17:39.205Z,22.83
2022-07-30T05:20:09.834Z,18.23
2022-07-30T05:22:39.998Z,19.77
2022-07-30T05:25:19.813Z,19.58
2022-07-30T05:28:57.027Z,19.90
2022-07-30T05:31:25.207Z,20.42
2022-07-30T05:33:53.286Z,21.95
2022-07-30T05:36:21.453Z,20.35
2022-07-30T05:38:50.668Z,15.50
2022-07-30T05:41:30.757Z,21.60
2022-07-30T05:44:02.237Z,18.63
2022-07-30T05:46:31.492Z,18.33
2022-07-30T05:49:00.107Z,22.40
2022-07-30T05:51:29.379Z,20.30
2022-07-30T05:54:00.705Z,19.23
2022-07-30T05:56:29.756Z,18.98
2022-07-30T05:58:58.576Z,22.10
2022-07-30T06:01:27.867Z,19.13
2022-07-30T06:03:55.894Z,20.33
2022-07-30T06:06:23.609Z,18.55
2022-07-30T06:08:52.286Z,19.23
2022-07-30T06:11:25.025Z,21.23
2022-07-30T06:13:53.777Z,19.90
2022-07-30T06:16:21.729Z,21.25
2022-07-30T06:18:50.384Z,17.83
2022-07-30T06:21:18.445Z,18.63
2022-07-30T06:23:46.218Z,20.73
2022-07-30T06:26:15.093Z,19.02
2022-07-30T06:28:44.584Z,18.33
2022-07-30T06:31:12.418Z,19.13
2022-07-30T06:33:40.476Z,18.42
2022-07-30T06:36:08.695Z,21.20
2022-07-30T06:38:42.982Z,27.52
2022-07-30T06:41:11.627Z,19.55
2022-07-30T06:43:40.027Z,20.35
2022-07-30T06:46:09.114Z,17.95
2022-07-30T06:48:37.742Z,23.17
2022-07-30T06:51:05.721Z,20.00
2022-07-30T06:53:33.577Z,18.50
2022-07-30T06:56:09.542Z,21.20
2022-07-30T06:58:37.296Z,17.83
2022-07-30T07:01:05.259Z,15.88
2022-07-30T07:03:40.973Z,21.50
2022-07-30T07:06:09.098Z,17.77
2022-07-30T07:08:38.443Z,17.75
2022-07-30T07:11:07.271Z,16.92
2022-07-30T07:13:36.140Z,19.73
2022-07-30T07:16:06.394Z,16.10
2022-07-30T07:18:35.067Z,17.10
2022-07-30T07:21:08.146Z,19.23
2022-07-30T07:23:41.384Z,18.20
2022-07-30T07:26:12.811Z,20.55
2022-07-30T07:28:41.730Z,21.27
2022-07-30T07:31:11.477Z,20.73
2022-07-30T07:33:59.276Z,19.27
2022-07-30T07:36:28.618Z,17.92
2022-07-30T07:38:56.261Z,17.58
2022-07-30T07:41:24.396Z,20.50
2022-07-30T07:44:57.126Z,24.30
2022-07-30T07:47:27.244Z,16.88
2022-07-30T07:49:56.397Z,17.13
2022-07-30T07:52:28.348Z,17.63
2022-07-30T07:54:56.014Z,14.88
2022-07-30T07:57:26.335Z,18.05
2022-07-30T07:59:55.459Z,18.98
2022-07-30T08:02:23.258Z,18.83
2022-07-30T08:04:51.943Z,20.57
2022-07-30T08:07:19.802Z,16.80
2022-07-30T08:09:49.125Z,19.70
2022-07-30T08:12:16.783Z,24.30
2022-07-30T08:14:44.666Z,18.13
2022-07-30T08:17:13.345Z,19.67
2022-07-30T08:19:42.331Z,19.73
2022-07-30T08:22:10.789Z,17.15
2022-07-30T08:24:38.543Z,17.23
2022-07-30T08:27:07.843Z,16.50
2022-07-30T08:29:35.779Z,14.80
2022-07-30T08:32:04.947Z,14.95
2022-07-30T08:34:33.847Z,16.98
2022-07-30T08:37:02.971Z,14.00
2022-07-30T08:39:31.462Z,16.20
2022-07-30T08:42:01.681Z,13.23
2022-07-30T08:44:33.150Z,14.05
2022-07-30T08:47:01.280Z,14.15
2022-07-30T08:49:29.408Z,14.07
2022-07-30T08:51:57.622Z,30.33
2022-07-30T08:54:26.510Z,15.48
2022-07-30T08:56:55.785Z,14.07
2022-07-30T08:59:25.690Z,14.25
2022-07-30T09:02:14.776Z,13.45
2022-07-30T09:04:42.738Z,11.53
2022-07-30T09:07:10.444Z,13.57
2022-07-30T09:09:40.856Z,13.23
2022-07-30T09:12:37.247Z,19.60
2022-07-30T09:15:08.738Z,14.30
2022-07-30T09:17:52.165Z,12.10
2022-07-30T09:20:21.212Z,14.98
2022-07-30T09:22:52.044Z,14.30
2022-07-30T09:25:35.747Z,13.77
2022-07-30T09:28:04.106Z,12.97
2022-07-30T09:30:46.167Z,14.00
2022-07-30T09:33:15.876Z,11.90
2022-07-30T09:35:45.782Z,13.25
2022-07-30T09:38:14.246Z,15.75
2022-07-30T09:40:57.212Z,14.60
2022-07-30T09:43:27.993Z,13.68
2022-07-30T09:46:00.473Z,16.45
2022-07-30T09:48:29.837Z,13.80
2022-07-30T09:50:58.205Z,14.68
2022-07-30T09:53:28.414Z,15.73
2022-07-30T09:55:58.546Z,15.68
2022-07-30T09:58:28.010Z,12.40
2022-07-30T10:00:58.375Z,11.07
2022-07-30T10:03:38.476Z,12.02
2022-07-30T10:06:11.209Z,11.50
2022-07-30T10:08:41.687Z,12.98
2022-07-30T10:11:12.217Z,12.00
2022-07-30T10:13:45.370Z,15.23
2022-07-30T10:16:14.367Z,14.50
2022-07-30T10:18:48.055Z,14.32
2022-07-30T10:21:16.986Z,13.93
2022-07-30T10:23:45.850Z,14.70
2022-07-30T10:26:20.085Z,8.27
2022-07-30T10:28:49.266Z,13.68
2022-07-30T10:31:47.352Z,14.77
2022-07-30T10:34:08.286Z,11.73
2022-07-30T10:36:42.151Z,11.38
2022-07-30T10:39:12.224Z,12.52
2022-07-30T10:41:54.232Z,9.67
2022-07-30T10:45:23.888Z,11.45
2022-07-30T10:47:53.060Z,12.43
2022-07-30T10:50:27.142Z,10.05
2022-07-30T10:52:57.065Z,9.77
2022-07-30T10:55:38.794Z,10.40
2022-07-30T10:58:09.956Z,7.55
2022-07-30T11:01:01.121Z,7.40
2022-07-30T11:03:40.037Z,8.45
2022-07-30T11:06:29.628Z,9.75
2022-07-30T11:08:58.502Z,11.27
2022-07-30T11:12:02.254Z,7.43
2022-07-30T11:15:06.856Z,8.70
2022-07-30T11:18:11.408Z,9.90
2022-07-30T11:20:40.661Z,8.20
2022-07-30T11:23:37.014Z,10.07
2022-07-30T11:26:07.264Z,7.50
2022-07-30T11:28:40.783Z,8.05
2022-07-30T11:32:07.463Z,7.93
2022-07-30T11:34:29.860Z,9.85
2022-07-30T11:37:18.703Z,7.75
2022-07-30T11:40:12.521Z,6.72
2022-07-30T11:42:42.139Z,8.35
2022-07-30T11:45:29.885Z,5.80
2022-07-30T11:48:01.477Z,8.60
2022-07-30T11:50:32.033Z,9.30
2022-07-30T11:53:01.353Z,9.52
2022-07-30T11:55:33.743Z,7.07
2022-07-30T11:58:04.194Z,7.15
2022-07-30T12:00:37.858Z,7.07
2022-07-30T12:03:11.703Z,6.15
2022-07-30T12:05:39.996Z,7.77
2022-07-30T12:08:08.160Z,7.18
2022-07-30T12:10:44.069Z,6.63
2022-07-30T12:13:14.215Z,7.87
2022-07-30T12:15:44.471Z,6.13
2022-07-30T12:18:26.390Z,8.75
2022-07-30T12:20:59.709Z,6.88
2022-07-30T12:24:28.729Z,6.17
2022-07-30T12:27:06.899Z,7.13
2022-07-30T12:29:36.192Z,7.32
2022-07-30T12:32:04.331Z,7.18
2022-07-30T12:34:33.692Z,8.93
2022-07-30T12:37:09.077Z,4.95
2022-07-30T12:39:37.651Z,9.75
2022-07-30T12:42:07.579Z,7.80
2022-07-30T12:44:39.120Z,5.38
2022-07-30T12:47:08.150Z,9.23
2022-07-30T12:49:37.569Z,4.90
2022-07-30T12:52:13.530Z,6.10
2022-07-30T12:55:03.388Z,4.50
2022-07-30T12:57:58.421Z,23.77
2022-07-30T13:00:28.569Z,4.35
2022-07-30T13:02:56.610Z,3.28
2022-07-30T13:05:48.598Z,6.35
2022-07-30T13:08:17.339Z,5.20
2022-07-30T13:10:59.887Z,4.05
2022-07-30T13:13:29.547Z,4.68
2022-07-30T13:16:01.835Z,2.75
2022-07-30T13:18:30.373Z,4.43
2022-07-30T13:20:58.309Z,7.45
2022-07-30T13:23:27.680Z,3.00
2022-07-30T13:25:55.641Z,3.63
2022-07-30T13:28:23.680Z,4.20
2022-07-30T13:30:53.089Z,2.83
2022-07-30T13:33:21.493Z,2.10
2022-07-30T13:35:50.153Z,3.65
2022-07-30T13:38:18.084Z,3.87
2022-07-30T13:40:46.015Z,4.32
2022-07-30T13:43:13.949Z,4.20
2022-07-30T13:45:42.373Z,3.45
2022-07-30T13:48:11.704Z,2.70
2022-07-30T13:50:41.597Z,3.15
2022-07-30T13:53:10.100Z,2.70
2022-07-30T13:55:38.738Z,2.00
2022-07-30T13:58:08.628Z,3.67
2022-07-30T14:00:37.378Z,3.03
2022-07-30T14:03:09.305Z,3.33
2022-07-30T14:05:42.111Z,2.28
2022-07-30T14:08:12.138Z,6.47
2022-07-30T14:10:41.205Z,3.37
2022-07-30T14:13:16.066Z,4.50
2022-07-30T14:15:49.919Z,3.70
2022-07-30T14:18:17.755Z,4.38
2022-07-30T14:20:49.334Z,2.72
2022-07-30T14:23:17.382Z,5.88
2022-07-30T14:25:47.258Z,3.10
2022-07-30T14:28:16.376Z,3.92
2022-07-30T14:30:45.067Z,2.00
2022-07-30T14:33:13.075Z,5.80
2022-07-30T14:47:14.899Z,2.25
2022-07-30T14:49:43.813Z,4.70
2022-07-30T14:52:13.660Z,4.32
2022-07-30T14:54:41.665Z,5.03
2022-07-30T14:57:10.651Z,4.55
2022-07-30T14:59:39.267Z,3.67
2022-07-30T15:02:10.666Z,3.20
2022-07-30T15:04:41.219Z,2.22
2022-07-30T15:10:50.149Z,4.75
2022-07-30T15:13:18.068Z,2.28
2022-07-30T15:15:47.334Z,5.25
2022-07-30T15:18:15.425Z,4.38
2022-07-30T15:20:44.940Z,3.97
2022-07-30T15:23:14.384Z,3.33
2022-07-30T15:25:43.676Z,3.13
2022-07-30T15:28:12.012Z,4.30
2022-07-30T15:30:39.980Z,3.22
2022-07-30T15:33:09.209Z,1.52
2022-07-30T15:35:38.258Z,3.40
2022-07-30T15:38:11.358Z,2.95
2022-07-30T15:40:40.206Z,2.20
2022-07-30T15:43:08.578Z,5.07
2022-07-30T15:45:55.772Z,1.95
2022-07-30T15:48:26.958Z,1.30
2022-07-30T15:51:01.727Z,1.90
2022-07-30T15:53:32.432Z,2.05
2022-07-30T15:56:00.698Z,1.60
2022-07-30T15:58:28.838Z,2.70
2022-07-30T16:00:56.776Z,2.65
2022-07-30T16:03:25.449Z,2.27
2022-07-30T16:05:54.965Z,4.03
2022-07-30T16:08:23.840Z,2.40
2022-07-30T16:10:53.165Z,3.83
2022-07-30T16:13:21.636Z,3.17
2022-07-30T16:15:49.985Z,2.13
2022-07-30T16:18:17.793Z,3.15
2022-07-30T16:21:47.091Z,3.10
2022-07-30T16:24:15.008Z,2.40
2022-07-30T16:26:47.654Z,4.15
2022-07-30T16:29:16.025Z,2.35
2022-07-30T16:31:44.880Z,2.38
2022-07-30T16:34:12.755Z,4.90
2022-07-30T16:36:40.600Z,1.50
2022-07-30T16:39:09.461Z,3.17
2022-07-30T16:41:48.333Z,2.10
2022-07-30T16:44:16.831Z,2.00
2022-07-30T16:46:46.426Z,2.00
2022-07-30T16:49:14.680Z,1.92
2022-07-30T16:51:42.957Z,1.88
2022-07-30T16:54:11.862Z,1.50
2022-07-30T16:56:40.116Z,2.55
2022-07-30T16:59:13.916Z,1.60
2022-07-30T17:01:42.323Z,2.20
2022-07-30T17:04:10.466Z,1.50
2022-07-30T17:06:39.941Z,1.90
2022-07-30T17:09:09.530Z,3.15
2022-07-30T17:11:46.721Z,1.48
2022-07-30T17:14:22.319Z,1.40
2022-07-30T17:16:50.734Z,1.60
2022-07-30T17:19:19.533Z,3.80
2022-07-30T17:21:47.504Z,1.50
2022-07-30T17:24:17.258Z,1.38
2022-07-30T17:26:46.869Z,4.17
2022-07-30T17:29:16.318Z,2.00
2022-07-30T17:31:48.635Z,2.53
2022-07-30T17:34:20.153Z,3.40
2022-07-30T17:36:52.277Z,2.72
2022-07-30T17:40:23.885Z,1.83
2022-07-30T17:42:12.360Z,3.25
2022-07-30T17:44:41.088Z,1.17
2022-07-30T17:47:15.154Z,3.42
2022-07-30T17:49:44.826Z,1.17
2022-07-30T17:52:12.893Z,1.90
2022-07-30T17:54:40.920Z,1.63
2022-07-30T17:57:09.207Z,2.42
2022-07-30T17:59:37.265Z,1.63
2022-07-30T18:02:06.475Z,1.90
2022-07-30T18:04:35.961Z,3.57
2022-07-30T18:07:04.116Z,3.33
2022-07-30T18:09:38.881Z,3.33
2022-07-30T18:12:09.902Z,1.90
2022-07-30T18:14:37.872Z,1.27
2022-07-30T18:17:09.081Z,2.55
2022-07-30T18:19:42.128Z,1.58
2022-07-30T18:22:14.759Z,3.17
2022-07-30T18:24:44.893Z,2.83
2022-07-30T18:27:13.489Z,3.65
2022-07-30T18:29:41.690Z,2.88
2022-07-30T18:32:11.347Z,2.17
2022-07-30T18:34:39.049Z,2.92
2022-07-30T18:37:08.810Z,2.13
2022-07-30T18:39:36.879Z,3.28
2022-07-30T18:42:05.411Z,3.65
2022-07-30T18:44:33.350Z,5.80
2022-07-30T18:47:01.240Z,6.10
2022-07-30T18:49:38.065Z,2.40
2022-07-30T18:52:10.377Z,4.18
2022-07-30T18:54:39.126Z,3.33
2022-07-30T18:57:11.292Z,4.47
2022-07-30T18:59:43.059Z,2.53
2022-07-30T19:02:11.026Z,3.28
2022-07-30T19:04:39.869Z,3.63
2022-07-30T19:07:09.331Z,4.05
2022-07-30T19:09:37.663Z,4.57
2022-07-30T19:12:06.263Z,3.95
2022-07-30T19:14:35.595Z,2.50
2022-07-30T19:17:13.730Z,3.03
2022-07-30T19:19:43.893Z,4.35
2022-07-30T19:22:13.065Z,2.60
2022-07-30T19:24:41.887Z,2.83
2022-07-30T19:27:14.121Z,4.93
2022-07-30T19:29:43.578Z,2.58
2022-07-30T19:32:12.513Z,5.05
2022-07-30T19:34:43.338Z,1.88
2022-07-30T19:37:11.492Z,2.30
2022-07-30T19:42:31.409Z,3.67
2022-07-30T19:45:04.266Z,3.75
2022-07-30T19:47:39.213Z,2.65
2022-07-30T19:50:08.745Z,5.80
2022-07-30T19:52:38.962Z,2.63
2022-07-30T19:55:18.394Z,4.30
2022-07-30T19:57:58.783Z,3.80
2022-07-30T20:00:32.090Z,3.50
2022-07-30T20:03:03.855Z,3.97
2022-07-30T20:05:33.249Z,2.65
2022-07-30T20:08:24.794Z,2.92
2022-07-30T20:10:59.133Z,3.75
2022-07-30T20:13:45.386Z,4.32
2022-07-30T20:16:14.674Z,2.30
2022-07-30T20:18:45.856Z,6.38
2022-07-30T20:21:16.836Z,4.40
2022-07-30T20:23:45.536Z,3.88
2022-07-30T20:26:16.121Z,4.15
2022-07-30T20:28:52.365Z,2.13
2022-07-30T20:31:22.544Z,5.93
2022-07-30T20:33:50.927Z,6.10
2022-07-30T20:36:19.322Z,4.07
2022-07-30T20:38:48.157Z,8.40
2022-07-30T20:41:17.658Z,5.10
2022-07-30T20:43:52.243Z,2.28
2022-07-30T20:46:36.712Z,3.65
2022-07-30T20:50:09.902Z,8.57
2022-07-30T20:52:40.155Z,6.28
2022-07-30T20:55:09.661Z,7.15
2022-07-30T20:57:56.907Z,5.25
2022-07-30T21:00:29.224Z,5.47
2022-07-30T21:02:57.723Z,3.53
2022-07-30T21:05:31.284Z,5.03
2022-07-30T21:07:59.391Z,6.57
2022-07-30T21:10:28.958Z,5.17
2022-07-30T21:13:02.847Z,5.55
2022-07-30T21:15:33.039Z,3.70
2022-07-30T21:18:01.681Z,6.00
2022-07-30T21:20:30.011Z,5.72
2022-07-30T21:22:58.853Z,6.43
2022-07-30T21:25:33.178Z,4.32
2022-07-30T21:28:06.550Z,4.30
2022-07-30T21:30:35.863Z,4.57
2022-07-30T21:33:03.696Z,4.20
2022-07-30T21:35:32.654Z,4.03
2022-07-30T21:38:01.424Z,3.60
2022-07-30T21:40:30.120Z,5.78
2022-07-30T21:42:59.274Z,3.13
2022-07-30T21:45:37.969Z,7.80
2022-07-30T21:48:09.313Z,5.13
2022-07-30T21:50:41.953Z,5.63
2022-07-30T21:53:12.978Z,4.23
2022-07-30T21:59:22.053Z,4.55
2022-07-30T22:01:55.193Z,6.13
2022-07-30T22:04:23.143Z,2.88
2022-07-30T22:06:54.502Z,6.35
2022-07-30T22:09:33.460Z,1.92
2022-07-30T22:12:09.141Z,3.80
2022-07-30T22:14:39.769Z,4.43
2022-07-30T22:17:22.475Z,3.55
2022-07-30T22:19:54.658Z,2.60
2022-07-30T22:22:27.450Z,4.40
2022-07-30T22:24:58.217Z,3.40
2022-07-30T22:27:39.877Z,4.72
2022-07-30T22:30:10.136Z,4.13
2022-07-30T22:32:42.919Z,9.00
2022-07-30T22:35:11.374Z,5.78
2022-07-30T22:37:40.071Z,6.72
2022-07-30T22:41:09.340Z,3.50
2022-07-30T22:43:42.663Z,5.22
2022-07-30T22:46:30.628Z,4.30
2022-07-30T22:49:01.390Z,4.13
2022-07-30T22:52:16.919Z,5.60
2022-07-30T22:54:19.446Z,4.33
2022-07-30T22:56:51.394Z,3.90
2022-07-30T22:59:19.350Z,4.45
2022-07-30T23:02:07.227Z,9.82
2022-07-30T23:04:41.976Z,2.60
2022-07-30T23:08:14.761Z,5.85
2022-07-30T23:10:59.868Z,3.80
2022-07-30T23:12:14.799Z,2.97
2022-07-30T23:13:28.802Z,2.80
2022-07-30T23:16:01.722Z,3.28
2022-07-30T23:18:29.554Z,3.92
2022-07-30T23:21:01.500Z,3.75
2022-07-30T23:23:30.687Z,3.38
2022-07-30T23:26:01.957Z,4.95
2022-07-30T23:28:30.056Z,4.03
2022-07-30T23:30:58.219Z,5.53
2022-07-30T23:33:25.982Z,2.78
2022-07-30T23:35:54.478Z,4.05
2022-07-30T23:38:27.136Z,6.25
2022-07-30T23:41:59.081Z,3.65
2022-07-30T23:44:27.561Z,5.80
2022-07-30T23:46:56.173Z,3.58
2022-07-30T23:49:24.555Z,5.90
2022-07-30T23:51:52.738Z,4.13
2022-07-30T23:54:22.327Z,4.78
2022-07-30T23:56:55.411Z,7.65
2022-07-30T23:59:23.974Z,4.50
